createdAt,value
2019-01-18T00:01:18.966Z,2.63
2019-01-18T00:03:48.617Z,2.83
2019-01-18T00:06:18.927Z,2.33
2019-01-18T00:08:48.617Z,2.90
2019-01-18T00:11:18.313Z,2.77
2019-01-18T00:13:47.987Z,2.50
2019-01-18T00:16:17.606Z,3.30
2019-01-18T00:18:47.208Z,2.90
2019-01-18T00:21:17.576Z,3.10
2019-01-18T00:23:47.313Z,3.60
2019-01-18T00:26:16.946Z,3.60
2019-01-18T00:28:46.561Z,2.80
2019-01-18T00:31:16.245Z,2.80
2019-01-18T00:33:45.853Z,2.80
2019-01-18T00:36:15.793Z,2.50
2019-01-18T00:38:45.409Z,2.40
2019-01-18T00:41:15.316Z,2.53
2019-01-18T00:43:44.942Z,3.33
2019-01-18T00:46:14.883Z,2.63
2019-01-18T00:48:44.544Z,2.70
2019-01-18T00:51:14.152Z,2.63
2019-01-18T00:53:43.761Z,2.50
2019-01-18T00:56:13.457Z,2.73
2019-01-18T00:58:43.104Z,2.43
2019-01-18T01:01:12.721Z,2.70
2019-01-18T01:03:42.413Z,2.13
2019-01-18T01:06:12.435Z,2.10
2019-01-18T01:08:42.594Z,2.40
2019-01-18T01:11:12.208Z,2.07
2019-01-18T01:13:41.815Z,2.30
2019-01-18T01:16:11.447Z,2.30
2019-01-18T01:18:41.277Z,2.13
2019-01-18T01:21:10.879Z,2.60
2019-01-18T01:23:40.492Z,2.17
2019-01-18T01:26:10.422Z,2.10
2019-01-18T01:28:40.113Z,2.27
2019-01-18T01:31:09.721Z,2.17
2019-01-18T01:33:39.370Z,1.80
2019-01-18T01:36:09.264Z,2.17
2019-01-18T01:38:38.877Z,1.93
2019-01-18T01:41:08.788Z,1.70
2019-01-18T01:43:38.774Z,2.30
2019-01-18T01:46:08.585Z,2.00
2019-01-18T01:48:38.358Z,1.90
2019-01-18T01:51:08.024Z,2.00
2019-01-18T01:53:37.649Z,1.93
2019-01-18T01:56:07.284Z,1.90
2019-01-18T01:58:36.991Z,2.43
2019-01-18T02:01:06.775Z,1.93
2019-01-18T02:03:36.504Z,2.10
2019-01-18T02:06:06.248Z,2.20
2019-01-18T02:08:35.867Z,2.00
2019-01-18T02:11:05.485Z,2.10
2019-01-18T02:13:35.397Z,1.83
2019-01-18T02:16:05.365Z,2.13
2019-01-18T02:18:35.065Z,1.87
2019-01-18T02:21:05.305Z,2.00
2019-01-18T02:23:35.294Z,1.40
2019-01-18T02:26:05.309Z,2.20
2019-01-18T02:28:35.030Z,1.97
2019-01-18T02:31:04.886Z,2.07
2019-01-18T02:33:34.588Z,2.10
2019-01-18T02:36:04.201Z,2.10
2019-01-18T02:38:33.864Z,2.00
2019-01-18T02:41:03.566Z,1.70
2019-01-18T02:43:33.196Z,1.97
2019-01-18T02:46:02.892Z,2.10
2019-01-18T02:48:32.510Z,2.00
2019-01-18T02:51:02.135Z,2.00
2019-01-18T02:53:31.735Z,1.50
2019-01-18T02:56:02.442Z,2.00
2019-01-18T02:58:32.044Z,1.83
2019-01-18T03:01:01.669Z,1.60
2019-01-18T03:03:31.264Z,1.90
2019-01-18T03:06:00.905Z,1.80
2019-01-18T03:08:30.920Z,1.83
2019-01-18T03:11:00.665Z,1.80
2019-01-18T03:13:30.288Z,1.70
2019-01-18T03:15:59.980Z,1.93
2019-01-18T03:18:29.978Z,2.23
2019-01-18T03:21:00.023Z,2.20
2019-01-18T03:23:29.709Z,2.47
2019-01-18T03:26:00.669Z,2.20
2019-01-18T03:28:30.362Z,1.90
2019-01-18T03:30:59.985Z,1.93
2019-01-18T03:33:29.593Z,1.77
2019-01-18T03:35:59.595Z,1.80
2019-01-18T03:38:29.210Z,2.00
2019-01-18T03:40:58.824Z,2.03
2019-01-18T03:43:28.429Z,1.80
2019-01-18T03:45:58.037Z,1.90
2019-01-18T03:48:27.684Z,1.90
2019-01-18T03:50:57.365Z,1.93
2019-01-18T03:53:26.978Z,2.07
2019-01-18T03:55:56.593Z,1.90
2019-01-18T03:58:26.215Z,2.00
2019-01-18T04:00:56.153Z,2.07
2019-01-18T04:03:25.781Z,2.50
2019-01-18T04:05:55.387Z,2.27
2019-01-18T04:08:25.068Z,1.97
2019-01-18T04:10:54.682Z,2.03
2019-01-18T04:13:24.405Z,2.00
2019-01-18T04:15:54.026Z,2.20
2019-01-18T04:18:23.654Z,2.10
2019-01-18T04:20:53.264Z,2.10
2019-01-18T04:23:22.886Z,2.20
2019-01-18T04:25:52.783Z,2.20
2019-01-18T04:28:22.417Z,2.20
2019-01-18T04:30:52.435Z,2.20
2019-01-18T04:33:23.026Z,2.17
2019-01-18T04:35:52.682Z,2.10
2019-01-18T04:38:22.301Z,2.17
2019-01-18T04:40:51.910Z,2.30
2019-01-18T04:43:21.533Z,2.27
2019-01-18T04:45:51.154Z,2.50
2019-01-18T04:48:20.768Z,2.30
2019-01-18T04:50:50.638Z,1.97
2019-01-18T04:53:20.311Z,2.03
2019-01-18T04:55:50.262Z,1.90
2019-01-18T04:58:20.094Z,2.10
2019-01-18T05:00:49.692Z,2.30
2019-01-18T05:03:19.322Z,2.10
2019-01-18T05:05:48.946Z,2.30
2019-01-18T05:08:18.557Z,2.00
2019-01-18T05:10:48.174Z,2.40
2019-01-18T05:13:17.866Z,2.07
2019-01-18T05:15:47.551Z,2.30
2019-01-18T05:18:17.148Z,1.97
2019-01-18T05:20:46.766Z,2.27
2019-01-18T05:23:16.625Z,2.10
2019-01-18T05:25:46.254Z,2.43
2019-01-18T05:28:16.415Z,2.23
2019-01-18T05:30:47.755Z,2.20
2019-01-18T05:33:17.388Z,2.40
2019-01-18T05:35:47.409Z,2.73
2019-01-18T05:38:17.048Z,2.43
2019-01-18T05:40:46.685Z,2.73
2019-01-18T05:43:16.576Z,2.73
2019-01-18T05:45:46.233Z,2.50
2019-01-18T05:48:15.837Z,2.70
2019-01-18T05:50:45.525Z,3.00
2019-01-18T05:53:15.586Z,2.90
2019-01-18T05:55:45.273Z,2.83
2019-01-18T05:58:14.876Z,2.70
2019-01-18T06:00:55.132Z,2.63
2019-01-18T06:03:20.152Z,2.80
2019-01-18T06:05:49.833Z,2.60
2019-01-18T06:08:19.492Z,2.40
2019-01-18T06:10:49.301Z,2.53
2019-01-18T06:13:19.152Z,2.30
2019-01-18T06:15:48.874Z,2.33
2019-01-18T06:18:18.480Z,2.00
2019-01-18T06:20:49.201Z,2.37
2019-01-18T06:23:18.806Z,2.33
2019-01-18T06:25:48.534Z,2.20
2019-01-18T06:28:18.237Z,2.30
2019-01-18T06:30:47.952Z,2.30
2019-01-18T06:33:17.635Z,2.30
2019-01-18T06:35:47.529Z,2.77
2019-01-18T06:38:17.153Z,2.33
2019-01-18T06:40:47.941Z,2.00
2019-01-18T06:43:17.638Z,2.63
2019-01-18T06:45:47.503Z,2.33
2019-01-18T06:48:20.812Z,2.33
2019-01-18T06:50:50.421Z,2.50
2019-01-18T06:53:20.041Z,2.60
2019-01-18T06:55:50.167Z,2.13
2019-01-18T06:58:19.804Z,2.60
2019-01-18T07:00:49.480Z,2.50
2019-01-18T07:03:19.102Z,2.47
2019-01-18T07:05:48.969Z,2.60
2019-01-18T07:08:18.661Z,2.73
2019-01-18T07:10:48.273Z,2.60
2019-01-18T07:13:17.948Z,2.40
2019-01-18T07:15:47.637Z,2.57
2019-01-18T07:18:17.581Z,2.50
2019-01-18T07:20:47.450Z,2.10
2019-01-18T07:23:17.260Z,4.83
2019-01-18T07:25:46.953Z,4.37
2019-01-18T07:28:16.692Z,3.30
2019-01-18T07:30:46.557Z,4.03
2019-01-18T07:33:17.278Z,3.10
2019-01-18T07:35:46.999Z,2.53
2019-01-18T07:38:16.726Z,2.83
2019-01-18T07:40:46.581Z,2.93
2019-01-18T07:43:16.337Z,3.10
2019-01-18T07:45:46.020Z,3.00
2019-01-18T07:48:15.704Z,3.70
2019-01-18T07:50:45.457Z,3.90
2019-01-18T07:53:16.400Z,3.50
2019-01-18T07:55:46.594Z,3.43
2019-01-18T07:58:16.505Z,3.07
2019-01-18T08:00:46.421Z,3.40
2019-01-18T08:03:16.426Z,2.90
2019-01-18T08:05:46.081Z,2.90
2019-01-18T08:08:15.853Z,3.57
2019-01-18T08:10:45.540Z,3.30
2019-01-18T08:13:15.431Z,3.50
2019-01-18T08:15:45.359Z,5.13
2019-01-18T08:18:15.233Z,3.77
2019-01-18T08:20:44.924Z,2.97
2019-01-18T08:23:14.804Z,7.23
2019-01-18T08:25:44.799Z,3.27
2019-01-18T08:28:14.553Z,2.90
2019-01-18T08:30:44.471Z,4.80
2019-01-18T08:33:14.311Z,5.67
2019-01-18T08:35:44.106Z,3.60
2019-01-18T08:38:13.863Z,3.83
2019-01-18T08:40:43.761Z,4.17
2019-01-18T08:43:15.393Z,4.30
2019-01-18T08:45:47.710Z,3.50
2019-01-18T08:48:17.432Z,3.83
2019-01-18T08:50:47.188Z,3.27
2019-01-18T08:53:16.900Z,3.93
2019-01-18T08:55:47.023Z,3.47
2019-01-18T08:58:16.636Z,9.90
2019-01-18T09:00:46.308Z,5.67
2019-01-18T09:03:16.281Z,11.60
2019-01-18T09:05:45.978Z,9.50
2019-01-18T09:08:15.889Z,4.93
2019-01-18T09:10:46.584Z,6.60
2019-01-18T09:13:16.387Z,6.37
2019-01-18T09:15:46.147Z,5.60
2019-01-18T09:18:16.082Z,3.77
2019-01-18T09:20:45.978Z,5.00
2019-01-18T09:23:27.861Z,3.90
2019-01-18T09:25:57.481Z,3.57
2019-01-18T09:28:28.244Z,4.83
2019-01-18T09:30:57.998Z,4.40
2019-01-18T09:33:27.769Z,3.57
2019-01-18T09:35:57.787Z,4.20
2019-01-18T09:38:27.666Z,3.93
2019-01-18T09:40:57.291Z,3.80
2019-01-18T09:43:27.123Z,3.53
2019-01-18T09:45:56.727Z,3.77
2019-01-18T09:48:26.424Z,3.20
2019-01-18T09:50:56.119Z,3.47
2019-01-18T09:53:25.738Z,3.50
2019-01-18T09:55:55.489Z,7.87
2019-01-18T09:58:25.142Z,4.20
2019-01-18T10:00:54.925Z,5.00
2019-01-18T10:03:24.780Z,3.83
2019-01-18T10:05:54.481Z,3.67
2019-01-18T10:08:24.244Z,3.77
2019-01-18T10:10:53.857Z,4.65
2019-01-18T10:13:23.737Z,4.23
2019-01-18T10:15:53.388Z,4.30
2019-01-18T10:18:23.074Z,4.33
2019-01-18T10:20:53.060Z,4.63
2019-01-18T10:23:22.668Z,4.00
2019-01-18T10:25:52.693Z,4.80
2019-01-18T10:28:22.354Z,4.60
2019-01-18T10:30:51.969Z,4.60
2019-01-18T10:33:21.628Z,4.27
2019-01-18T10:35:51.565Z,4.10
2019-01-18T10:38:21.170Z,3.60
2019-01-18T10:40:50.868Z,3.57
2019-01-18T10:43:20.749Z,3.63
2019-01-18T10:45:50.682Z,4.00
2019-01-18T10:48:20.428Z,3.57
2019-01-18T10:50:50.297Z,4.33
2019-01-18T10:53:19.922Z,3.60
2019-01-18T10:55:49.650Z,3.50
2019-01-18T10:58:19.567Z,3.67
2019-01-18T11:00:49.462Z,3.53
2019-01-18T11:03:19.081Z,4.03
2019-01-18T11:05:49.101Z,4.10
2019-01-18T11:08:19.038Z,3.77
2019-01-18T11:10:48.716Z,3.40
2019-01-18T11:13:18.338Z,3.30
2019-01-18T11:15:47.981Z,3.73
2019-01-18T11:18:17.596Z,3.40
2019-01-18T11:21:20.427Z,4.13
2019-01-18T11:23:50.363Z,3.97
2019-01-18T11:26:19.966Z,4.20
2019-01-18T11:28:49.909Z,5.90
2019-01-18T11:31:23.276Z,3.27
2019-01-18T11:33:50.997Z,3.93
2019-01-18T11:36:20.614Z,3.73
2019-01-18T11:38:50.276Z,4.30
2019-01-18T11:41:19.905Z,3.93
2019-01-18T11:43:49.605Z,3.80
2019-01-18T11:46:19.518Z,4.10
2019-01-18T11:48:50.450Z,3.83
2019-01-18T11:51:20.216Z,3.70
2019-01-18T11:53:50.913Z,3.97
2019-01-18T11:56:20.525Z,4.60
2019-01-18T11:58:50.364Z,4.87
2019-01-18T12:01:19.967Z,4.50
2019-01-18T12:03:49.834Z,4.77
2019-01-18T12:06:19.456Z,4.63
2019-01-18T12:08:49.340Z,4.37
2019-01-18T12:11:18.998Z,4.57
2019-01-18T12:13:49.557Z,4.40
2019-01-18T12:16:19.354Z,4.70
2019-01-18T12:18:49.052Z,4.37
2019-01-18T12:21:19.652Z,4.90
2019-01-18T12:23:49.430Z,4.43
2019-01-18T12:26:19.110Z,4.93
2019-01-18T12:28:48.813Z,4.70
2019-01-18T12:31:18.419Z,5.00
2019-01-18T12:33:48.105Z,4.60
2019-01-18T12:36:18.125Z,4.70
2019-01-18T12:38:47.745Z,4.70
2019-01-18T12:41:17.690Z,4.97
2019-01-18T12:43:47.376Z,4.83
2019-01-18T12:46:17.010Z,4.80
2019-01-18T12:48:46.656Z,4.70
2019-01-18T12:51:16.672Z,4.63
2019-01-18T12:53:46.304Z,4.77
2019-01-18T12:56:16.045Z,4.50
2019-01-18T12:58:45.726Z,4.97
2019-01-18T13:01:15.821Z,4.80
2019-01-18T13:03:45.589Z,4.20
2019-01-18T13:06:15.361Z,4.87
2019-01-18T13:08:45.085Z,5.00
2019-01-18T13:11:14.730Z,5.10
2019-01-18T13:13:44.439Z,5.37
2019-01-18T13:16:26.436Z,5.37
2019-01-18T13:19:01.582Z,7.00
2019-01-18T13:21:31.460Z,5.40
2019-01-18T13:24:01.621Z,5.50
2019-01-18T13:26:31.360Z,4.90
2019-01-18T13:29:01.465Z,5.37
2019-01-18T13:31:31.203Z,5.73
2019-01-18T13:34:03.108Z,5.20
2019-01-18T13:36:32.643Z,5.47
2019-01-18T13:39:02.349Z,5.50
2019-01-18T13:41:33.618Z,5.60
2019-01-18T13:44:03.573Z,5.50
2019-01-18T13:46:33.748Z,5.10
2019-01-18T13:49:03.436Z,4.83
2019-01-18T13:51:33.230Z,5.77
2019-01-18T13:54:02.986Z,5.87
2019-01-18T13:56:32.612Z,5.40
2019-01-18T13:59:02.369Z,5.53
2019-01-18T14:01:32.084Z,5.50
2019-01-18T14:04:01.991Z,5.27
2019-01-18T14:06:31.652Z,5.30
2019-01-18T14:09:01.271Z,5.57
2019-01-18T14:11:32.669Z,5.00
2019-01-18T14:14:02.368Z,6.00
2019-01-18T14:16:32.227Z,5.37
2019-01-18T14:19:01.869Z,5.87
2019-01-18T14:21:31.474Z,6.27
2019-01-18T14:24:01.090Z,6.67
2019-01-18T14:26:30.770Z,6.10
2019-01-18T14:29:00.401Z,5.43
2019-01-18T14:31:30.102Z,6.40
2019-01-18T14:33:59.709Z,6.73
2019-01-18T14:36:29.731Z,6.27
2019-01-18T14:38:59.659Z,6.37
2019-01-18T14:41:31.089Z,6.17
2019-01-18T14:44:00.989Z,6.27
2019-01-18T14:46:30.731Z,5.87
2019-01-18T14:49:00.350Z,7.30
2019-01-18T14:51:29.992Z,7.00
2019-01-18T14:53:59.618Z,7.10
2019-01-18T14:56:29.485Z,6.07
2019-01-18T14:58:59.408Z,6.83
2019-01-18T15:01:29.077Z,6.13
2019-01-18T15:03:58.728Z,5.70
2019-01-18T15:06:28.674Z,6.10
2019-01-18T15:08:58.649Z,6.67
2019-01-18T15:11:28.602Z,5.87
2019-01-18T15:13:58.220Z,6.60
2019-01-18T15:16:28.220Z,6.87
2019-01-18T15:18:57.842Z,5.87
2019-01-18T15:21:28.157Z,6.83
2019-01-18T15:23:57.993Z,11.00
2019-01-18T15:26:27.599Z,10.40
2019-01-18T15:28:57.482Z,7.87
2019-01-18T15:31:27.149Z,7.87
2019-01-18T15:33:56.757Z,7.10
2019-01-18T15:36:26.658Z,7.60
2019-01-18T15:38:56.273Z,6.47
2019-01-18T15:41:26.137Z,6.30
2019-01-18T15:43:55.886Z,8.40
2019-01-18T15:46:25.489Z,6.80
2019-01-18T15:48:55.103Z,7.80
2019-01-18T15:51:24.792Z,6.90
2019-01-18T15:53:54.756Z,7.23
2019-01-18T15:56:24.711Z,8.23
2019-01-18T15:58:54.472Z,8.23
2019-01-18T16:01:24.166Z,7.00
2019-01-18T16:03:53.869Z,8.27
2019-01-18T16:06:23.485Z,8.93
2019-01-18T16:08:53.098Z,8.77
2019-01-18T16:11:22.713Z,8.83
2019-01-18T16:13:52.709Z,8.73
2019-01-18T16:16:26.142Z,8.67
2019-01-18T16:18:57.581Z,9.93
2019-01-18T16:21:27.805Z,10.67
2019-01-18T16:23:57.427Z,10.73
2019-01-18T16:26:27.381Z,10.27
2019-01-18T16:28:57.010Z,22.23
2019-01-18T16:31:27.568Z,25.63
2019-01-18T16:33:57.181Z,26.13
2019-01-18T16:36:27.197Z,15.80
2019-01-18T16:38:57.501Z,14.27
2019-01-18T16:41:31.034Z,15.03
2019-01-18T16:44:01.615Z,12.77
2019-01-18T16:46:31.473Z,47.60
2019-01-18T16:49:01.101Z,18.60
2019-01-18T16:51:30.715Z,13.80
2019-01-18T16:54:00.642Z,17.60
2019-01-18T16:56:30.277Z,24.50
2019-01-18T16:58:59.888Z,19.97
2019-01-18T17:01:29.894Z,14.63
2019-01-18T17:03:59.591Z,17.40
2019-01-18T17:06:29.291Z,18.60
2019-01-18T17:08:58.909Z,17.57
2019-01-18T17:11:28.533Z,15.97
2019-01-18T17:13:58.174Z,20.93
2019-01-18T17:16:27.908Z,18.77
2019-01-18T17:18:57.608Z,14.30
2019-01-18T17:21:27.906Z,15.17
2019-01-18T17:23:58.883Z,19.13
2019-01-18T17:26:28.609Z,21.07
2019-01-18T17:28:58.483Z,22.17
2019-01-18T17:31:28.172Z,16.97
2019-01-18T17:33:57.878Z,18.57
2019-01-18T17:36:45.452Z,22.40
2019-01-18T17:39:46.513Z,23.03
2019-01-18T17:42:53.410Z,27.13
2019-01-18T17:45:50.053Z,17.70
2019-01-18T17:48:50.373Z,18.50
2019-01-18T17:51:59.828Z,17.47
2019-01-18T17:55:11.106Z,18.37
2019-01-18T17:58:20.292Z,20.47
2019-01-18T18:01:08.846Z,15.93
2019-01-18T18:04:20.445Z,19.03
2019-01-18T18:07:31.713Z,16.47
2019-01-18T18:10:53.977Z,17.40
2019-01-18T18:13:49.711Z,17.07
2019-01-18T18:16:45.352Z,18.80
2019-01-18T18:19:39.523Z,18.03
2019-01-18T18:22:34.700Z,18.00
2019-01-18T18:25:18.390Z,19.77
2019-01-18T18:28:10.153Z,21.67
2019-01-18T18:30:56.648Z,20.80
2019-01-18T18:34:02.653Z,27.57
2019-01-18T18:37:04.645Z,31.30
2019-01-18T18:40:05.537Z,26.97
2019-01-18T18:43:00.281Z,21.53
2019-01-18T18:46:10.076Z,20.97
2019-01-18T18:48:49.906Z,19.27
2019-01-18T18:52:04.166Z,19.20
2019-01-18T18:55:14.167Z,19.57
2019-01-18T18:58:24.948Z,19.43
2019-01-18T19:01:06.485Z,19.30
2019-01-18T19:04:17.421Z,20.90
2019-01-18T19:07:13.679Z,20.07
2019-01-18T19:10:29.852Z,20.27
2019-01-18T19:13:47.519Z,19.77
2019-01-18T19:16:46.510Z,18.93
2019-01-18T19:19:44.101Z,19.10
2019-01-18T19:22:41.330Z,21.47
2019-01-18T19:25:31.704Z,21.70
2019-01-18T19:28:42.094Z,20.63
2019-01-18T19:31:52.464Z,20.63
2019-01-18T19:34:57.237Z,20.97
2019-01-18T19:37:52.813Z,26.33
2019-01-18T19:40:50.372Z,29.27
2019-01-18T19:44:16.634Z,22.03
2019-01-18T19:46:59.358Z,20.13
2019-01-18T19:49:50.245Z,19.70
2019-01-18T19:53:07.848Z,18.70
2019-01-18T19:56:24.628Z,18.87
2019-01-18T19:59:06.191Z,19.00
2019-01-18T20:02:14.553Z,20.20
2019-01-18T20:05:11.504Z,19.13
2019-01-18T20:08:05.700Z,19.07
2019-01-18T20:11:22.383Z,20.50
2019-01-18T20:14:55.069Z,20.77
2019-01-18T20:17:54.716Z,20.43
2019-01-18T20:21:00.471Z,19.97
2019-01-18T20:24:08.292Z,18.90
2019-01-18T20:27:10.441Z,20.20
2019-01-18T20:30:05.495Z,19.70
2019-01-18T20:33:10.265Z,19.87
2019-01-18T20:36:15.257Z,21.50
2019-01-18T20:39:11.752Z,21.07
2019-01-18T20:42:15.412Z,21.13
2019-01-18T20:45:12.922Z,20.77
2019-01-18T20:48:10.263Z,19.47
2019-01-18T20:51:12.024Z,20.50
2019-01-18T20:54:07.698Z,21.50
2019-01-18T20:56:47.361Z,21.53
2019-01-18T20:59:35.109Z,21.53
2019-01-18T21:02:35.970Z,21.30
2019-01-18T21:05:30.145Z,21.20
2019-01-18T21:08:43.291Z,21.47
2019-01-18T21:11:44.036Z,21.13
2019-01-18T21:14:48.392Z,20.37
2019-01-18T21:17:56.600Z,21.20
2019-01-18T21:21:06.744Z,21.77
2019-01-18T21:24:01.709Z,20.27
2019-01-18T21:27:20.852Z,21.00
2019-01-18T21:30:18.516Z,20.30
2019-01-18T21:33:41.477Z,21.87
2019-01-18T21:37:06.249Z,22.03
2019-01-18T21:40:09.343Z,20.37
2019-01-18T21:43:04.639Z,21.80
2019-01-18T21:46:23.450Z,20.83
2019-01-18T21:49:31.181Z,19.77
2019-01-18T21:52:42.397Z,20.40
2019-01-18T21:56:17.661Z,20.23
2019-01-18T21:59:20.800Z,19.43
2019-01-18T22:02:34.694Z,20.60
2019-01-18T22:05:41.625Z,19.97
2019-01-18T22:08:49.505Z,19.17
2019-01-18T22:11:49.650Z,20.17
2019-01-18T22:14:54.292Z,19.37
2019-01-18T22:17:50.509Z,19.97
2019-01-18T22:20:43.269Z,20.23
2019-01-18T22:23:44.783Z,19.17
2019-01-18T22:26:47.617Z,18.90
2019-01-18T22:29:47.334Z,19.07
2019-01-18T22:32:38.775Z,18.73
2019-01-18T22:35:37.034Z,18.57
2019-01-18T22:38:55.159Z,18.57
2019-01-18T22:42:21.218Z,17.27
2019-01-18T22:45:15.253Z,16.83
2019-01-18T22:47:58.311Z,16.53
2019-01-18T22:51:25.125Z,16.83
2019-01-18T22:54:10.345Z,15.93
2019-01-18T22:57:14.634Z,16.53
2019-01-18T23:00:00.713Z,15.23
2019-01-18T23:03:04.849Z,18.30
2019-01-18T23:06:22.085Z,16.47
2019-01-18T23:09:18.352Z,15.93
2019-01-18T23:12:18.970Z,16.07
2019-01-18T23:15:02.731Z,16.60
2019-01-18T23:17:55.344Z,17.87
2019-01-18T23:21:14.769Z,18.10
2019-01-18T23:24:11.185Z,17.03
2019-01-18T23:27:17.524Z,16.17
2019-01-18T23:30:11.206Z,16.37
2019-01-18T23:33:02.169Z,17.00
2019-01-18T23:36:15.146Z,19.00
2019-01-18T23:39:25.223Z,18.80
2019-01-18T23:42:28.007Z,18.83
2019-01-18T23:45:23.849Z,18.77
2019-01-18T23:48:22.557Z,18.30
2019-01-18T23:51:33.056Z,18.13
2019-01-18T23:54:32.353Z,17.77
2019-01-18T23:57:27.344Z,18.37
